Time;durP1;ratioP1;P1;durP2;ratioP2;P2;SDS_P1;SDS_P2;PMS_P1;PMS_P2;Temp;Humidity;BMP_temperature;BMP_pressure;BME280_temperature;BME280_humidity;BME280_pressure;Samples;Min_cycle;Max_cycle;Signal;HPM_P1;HPM_P2
2022/11/06 06:05:29;;;;;;;48.42;22.52;;;;;;;;;;4915039;29;20052;-59
2022/11/06 06:07:55;;;;;;;48.25;22.20;;;;;;;;;;4916987;29;20032;-61
2022/11/06 06:10:21;;;;;;;47.47;22.52;;;;;;;;;;4916393;29;20458;-59
2022/11/06 06:12:49;;;;;;;40.95;22.05;;;;;;;;;;4916463;29;20115;-59
2022/11/06 06:15:16;;;;;;;43.20;22.58;;;;;;;;;;4916015;29;20083;-59
2022/11/06 06:17:42;;;;;;;41.63;22.15;;;;;;;;;;4915851;29;20480;-67
2022/11/06 06:20:08;;;;;;;49.10;24.48;;;;;;;;;;4916354;29;20046;-59
2022/11/06 06:22:34;;;;;;;50.03;24.88;;;;;;;;;;4915841;29;20048;-63
2022/11/06 06:25:00;;;;;;;50.08;23.92;;;;;;;;;;4916050;29;20119;-68
2022/11/06 06:27:26;;;;;;;48.00;24.85;;;;;;;;;;4916162;29;20062;-69
2022/11/06 06:29:53;;;;;;;49.85;24.80;;;;;;;;;;4915796;29;20079;-69
2022/11/06 06:32:19;;;;;;;61.67;25.42;;;;;;;;;;4915885;29;20052;-58
2022/11/06 06:34:45;;;;;;;52.85;25.17;;;;;;;;;;4915830;29;20107;-60
2022/11/06 06:37:11;;;;;;;49.58;23.83;;;;;;;;;;4915850;29;20116;-57
2022/11/06 06:39:37;;;;;;;52.05;24.42;;;;;;;;;;4916243;29;20039;-57
2022/11/06 06:42:03;;;;;;;57.60;24.85;;;;;;;;;;4915196;29;20044;-61
2022/11/06 06:44:29;;;;;;;50.85;23.77;;;;;;;;;;4915797;29;20031;-57
2022/11/06 06:46:55;;;;;;;56.70;25.27;;;;;;;;;;4915856;29;20091;-67
2022/11/06 06:49:21;;;;;;;58.00;25.35;;;;;;;;;;4916149;29;20424;-58
2022/11/06 06:51:48;;;;;;;59.67;24.73;;;;;;;;;;4915746;29;20126;-57
2022/11/06 06:54:14;;;;;;;53.42;25.33;;;;;;;;;;4915778;29;20152;-66
2022/11/06 06:56:40;;;;;;;60.78;25.38;;;;;;;;;;4915818;29;20055;-58
2022/11/06 06:59:06;;;;;;;62.63;26.77;;;;;;;;;;4915653;29;20480;-61
2022/11/06 07:01:32;;;;;;;56.58;25.65;;;;;;;;;;4915438;29;20080;-57
2022/11/06 07:03:58;;;;;;;59.42;26.98;;;;;;;;;;4925134;29;20056;-60
2022/11/06 07:06:33;;;;;;;59.80;28.63;;;;;;;;;;4944666;29;20028;-65
2022/11/06 07:08:59;;;;;;;58.13;28.35;;;;;;;;;;4944905;29;20074;-61
2022/11/06 07:11:28;;;;;;;58.53;27.00;;;;;;;;;;4935338;29;20035;-64
2022/11/06 07:14:00;;;;;;;67.68;28.52;;;;;;;;;;4953741;29;20031;-67
2022/11/06 07:16:28;;;;;;;55.72;27.88;;;;;;;;;;4919459;29;20035;-62
2022/11/06 07:18:55;;;;;;;63.88;28.95;;;;;;;;;;4937213;29;20556;-67
2022/11/06 07:21:21;;;;;;;62.00;28.48;;;;;;;;;;4936806;29;20052;-71
2022/11/06 07:23:47;;;;;;;61.97;29.20;;;;;;;;;;4934022;29;20032;-66
2022/11/06 07:26:13;;;;;;;63.15;28.17;;;;;;;;;;4934356;29;20364;-67
2022/11/06 07:28:39;;;;;;;64.10;28.67;;;;;;;;;;4929989;29;20030;-68
2022/11/06 07:31:06;;;;;;;66.43;31.05;;;;;;;;;;4922867;29;20028;-60
2022/11/06 07:33:33;;;;;;;65.40;29.00;;;;;;;;;;4922617;29;20102;-66
2022/11/06 07:36:03;;;;;;;66.07;29.38;;;;;;;;;;4924235;29;20035;-58
2022/11/06 07:38:29;;;;;;;77.18;34.13;;;;;;;;;;4923337;29;20020;-59
2022/11/06 07:40:55;;;;;;;66.75;31.17;;;;;;;;;;4933406;29;20042;-59
2022/11/06 07:43:23;;;;;;;68.97;30.08;;;;;;;;;;4931832;29;20038;-59
2022/11/06 07:45:49;;;;;;;69.65;29.13;;;;;;;;;;4943218;29;20026;-59
2022/11/06 07:48:15;;;;;;;69.68;29.05;;;;;;;;;;4953096;29;20031;-63
2022/11/06 07:50:41;;;;;;;64.60;28.42;;;;;;;;;;4953032;29;20412;-63
2022/11/06 07:53:07;;;;;;;66.22;29.75;;;;;;;;;;4931444;29;20045;-61
2022/11/06 07:55:33;;;;;;;65.22;29.92;;;;;;;;;;4934073;29;20028;-63
2022/11/06 07:57:59;;;;;;;74.30;31.90;;;;;;;;;;4934065;29;20031;-68
2022/11/06 08:00:25;;;;;;;73.85;33.40;;;;;;;;;;4924651;29;20442;-59
2022/11/06 08:02:52;;;;;;;79.75;34.03;;;;;;;;;;4923338;29;20055;-61
2022/11/06 08:05:18;;;;;;;77.68;33.17;;;;;;;;;;4918680;29;20052;-61
2022/11/06 08:07:44;;;;;;;81.35;34.20;;;;;;;;;;4914160;29;20024;-61
2022/11/06 08:10:10;;;;;;;80.43;33.78;;;;;;;;;;4933491;29;20036;-59
2022/11/06 08:12:36;;;;;;;82.57;33.25;;;;;;;;;;4933485;29;20098;-65
2022/11/06 08:15:02;;;;;;;83.68;35.35;;;;;;;;;;4933365;29;20495;-64
2022/11/06 08:17:29;;;;;;;83.60;34.92;;;;;;;;;;4914534;29;20032;-59
2022/11/06 08:19:56;;;;;;;77.55;34.28;;;;;;;;;;4914589;29;20024;-63
2022/11/06 08:22:22;;;;;;;79.35;33.30;;;;;;;;;;4920381;29;20079;-67
2022/11/06 08:24:48;;;;;;;76.13;33.67;;;;;;;;;;4921065;29;20088;-58
2022/11/06 08:27:14;;;;;;;70.63;31.05;;;;;;;;;;4926231;29;20538;-59
2022/11/06 08:29:40;;;;;;;72.45;33.20;;;;;;;;;;4928092;29;20055;-61
2022/11/06 08:32:06;;;;;;;62.78;29.55;;;;;;;;;;4933203;29;20047;-60
2022/11/06 08:34:34;;;;;;;66.28;31.95;;;;;;;;;;4932572;29;20484;-64
2022/11/06 08:37:00;;;;;;;66.57;30.45;;;;;;;;;;4932819;29;20421;-60
2022/11/06 08:39:26;;;;;;;65.03;30.77;;;;;;;;;;4933477;29;20031;-60
2022/11/06 08:41:52;;;;;;;72.20;31.92;;;;;;;;;;4933023;29;20035;-59
2022/11/06 08:44:18;;;;;;;67.22;30.70;;;;;;;;;;4933297;29;20027;-60
2022/11/06 08:46:44;;;;;;;66.00;29.35;;;;;;;;;;4933143;29;20034;-60
2022/11/06 08:49:10;;;;;;;65.93;30.25;;;;;;;;;;4933382;29;20063;-67
2022/11/06 08:51:36;;;;;;;63.28;29.67;;;;;;;;;;4927125;29;20032;-64
2022/11/06 08:54:02;;;;;;;63.95;28.55;;;;;;;;;;4921026;29;20024;-63
2022/11/06 08:56:28;;;;;;;64.50;30.35;;;;;;;;;;4930477;29;20031;-63
2022/11/06 08:58:54;;;;;;;65.47;29.95;;;;;;;;;;4914721;29;20097;-60
2022/11/06 09:01:22;;;;;;;73.68;30.88;;;;;;;;;;4916150;29;20040;-60
2022/11/06 09:03:48;;;;;;;65.35;29.45;;;;;;;;;;4913921;29;20048;-63
2022/11/06 09:06:14;;;;;;;69.40;28.52;;;;;;;;;;4917107;29;20020;-61
2022/11/06 09:08:40;;;;;;;67.85;28.65;;;;;;;;;;4916537;29;20438;-61
2022/11/06 09:11:06;;;;;;;63.33;29.50;;;;;;;;;;4917695;29;20567;-60
2022/11/06 09:13:33;;;;;;;65.80;27.73;;;;;;;;;;4917462;29;20111;-57
2022/11/06 09:16:00;;;;;;;58.17;28.15;;;;;;;;;;4917736;29;20040;-62
2022/11/06 09:18:26;;;;;;;62.85;27.92;;;;;;;;;;4917407;29;20456;-63
2022/11/06 09:20:55;;;;;;;61.55;29.02;;;;;;;;;;4917158;29;20039;-61
2022/11/06 09:23:22;;;;;;;62.35;27.65;;;;;;;;;;4917339;29;20083;-61
2022/11/06 09:25:48;;;;;;;59.22;26.92;;;;;;;;;;4917168;29;20043;-64
2022/11/06 09:28:14;;;;;;;56.60;26.67;;;;;;;;;;4917291;29;20032;-60
2022/11/06 09:30:40;;;;;;;62.50;28.13;;;;;;;;;;4917387;29;20039;-64
2022/11/06 09:33:06;;;;;;;63.15;27.98;;;;;;;;;;4916938;29;20115;-64
2022/11/06 09:35:33;;;;;;;66.10;27.83;;;;;;;;;;4917147;29;20035;-60
2022/11/06 09:38:10;;;;;;;60.90;26.52;;;;;;;;;;4916992;29;20103;-63
2022/11/06 09:40:37;;;;;;;67.13;29.58;;;;;;;;;;4917110;29;20028;-63
2022/11/06 09:43:03;;;;;;;70.72;30.90;;;;;;;;;;4916892;29;20040;-60
2022/11/06 09:45:31;;;;;;;75.28;31.42;;;;;;;;;;4917271;29;20046;-60
2022/11/06 09:48:04;;;;;;;72.70;30.10;;;;;;;;;;4916985;29;20029;-65
2022/11/06 09:50:32;;;;;;;72.88;30.85;;;;;;;;;;4917069;29;20417;-59
2022/11/06 09:53:02;;;;;;;66.43;29.55;;;;;;;;;;4916783;29;20031;-60
2022/11/06 09:55:34;;;;;;;71.05;30.42;;;;;;;;;;4916233;29;20073;-60
2022/11/06 09:58:21;;;;;;;76.47;30.60;;;;;;;;;;4916744;29;20020;-60
2022/11/06 10:00:48;;;;;;;71.85;29.60;;;;;;;;;;4916616;29;20666;-65
2022/11/06 10:03:20;;;;;;;68.38;28.80;;;;;;;;;;4915878;29;20058;-60
2022/11/06 10:05:46;;;;;;;76.88;32.13;;;;;;;;;;4916791;29;20047;-60
2022/11/06 10:08:18;;;;;;;70.38;29.02;;;;;;;;;;4916536;29;20036;-63
2022/11/06 10:11:03;;;;;;;66.55;29.55;;;;;;;;;;4916455;29;20028;-58
2022/11/06 10:13:29;;;;;;;68.72;28.55;;;;;;;;;;4916250;29;20032;-61
2022/11/06 10:16:13;;;;;;;68.60;28.20;;;;;;;;;;4915765;29;20036;-61
2022/11/06 10:18:39;;;;;;;69.80;29.98;;;;;;;;;;4916101;29;20028;-60
2022/11/06 10:21:17;;;;;;;73.07;29.92;;;;;;;;;;4916102;29;20032;-63
2022/11/06 10:23:48;;;;;;;71.95;30.45;;;;;;;;;;4915680;29;20116;-58
2022/11/06 10:26:18;;;;;;;71.55;28.75;;;;;;;;;;4915788;29;20127;-60
2022/11/06 10:29:07;;;;;;;70.82;29.23;;;;;;;;;;4917995;29;20123;-64
2022/11/06 10:31:56;;;;;;;68.32;27.95;;;;;;;;;;4915430;29;20039;-60
2022/11/06 10:34:31;;;;;;;74.82;29.42;;;;;;;;;;4915389;29;20051;-60
2022/11/06 10:37:01;;;;;;;78.85;29.92;;;;;;;;;;4915732;29;20514;-59
2022/11/06 10:39:32;;;;;;;70.82;30.65;;;;;;;;;;4916653;29;20032;-62
2022/11/06 10:42:01;;;;;;;70.70;29.52;;;;;;;;;;4923530;29;20395;-57
2022/11/06 10:44:30;;;;;;;69.88;28.67;;;;;;;;;;4924894;29;20051;-59
2022/11/06 10:47:01;;;;;;;79.40;30.27;;;;;;;;;;4924687;29;20053;-62
2022/11/06 10:49:33;;;;;;;70.78;30.63;;;;;;;;;;4934220;29;20032;-59
2022/11/06 10:51:59;;;;;;;78.90;31.40;;;;;;;;;;4924884;29;20033;-58
2022/11/06 10:54:44;;;;;;;79.72;31.98;;;;;;;;;;4922326;29;20035;-59
2022/11/06 10:57:10;;;;;;;82.85;33.58;;;;;;;;;;4924959;29;20024;-59
2022/11/06 10:59:36;;;;;;;79.93;32.28;;;;;;;;;;4915379;29;20086;-59
2022/11/06 11:02:02;;;;;;;88.25;35.35;;;;;;;;;;4915239;29;20040;-57
2022/11/06 11:04:31;;;;;;;89.10;38.60;;;;;;;;;;4914222;29;20047;-58
2022/11/06 11:06:58;;;;;;;109.20;46.88;;;;;;;;;;4915964;29;20175;-62
2022/11/06 11:09:31;;;;;;;106.35;43.78;;;;;;;;;;4898319;29;20088;-60
2022/11/06 11:11:58;;;;;;;92.93;37.45;;;;;;;;;;4917955;29;20123;-62
2022/11/06 11:14:31;;;;;;;98.13;38.72;;;;;;;;;;4925215;29;20395;-62
2022/11/06 11:16:59;;;;;;;82.65;36.05;;;;;;;;;;4940758;29;20023;-62
2022/11/06 11:19:27;;;;;;;85.47;35.97;;;;;;;;;;4952865;29;20038;-62
2022/11/06 11:21:53;;;;;;;88.28;36.08;;;;;;;;;;4935489;29;20047;-62
2022/11/06 11:24:19;;;;;;;87.18;35.58;;;;;;;;;;4935597;29;20031;-60
2022/11/06 11:27:05;;;;;;;88.43;35.33;;;;;;;;;;4953056;29;20467;-59
2022/11/06 11:29:32;;;;;;;77.53;33.45;;;;;;;;;;4952667;29;20047;-59
2022/11/06 11:32:01;;;;;;;84.72;32.67;;;;;;;;;;4957584;29;20185;-61
2022/11/06 11:34:28;;;;;;;82.22;31.88;;;;;;;;;;4936019;29;20117;-59
2022/11/06 11:36:58;;;;;;;82.07;33.15;;;;;;;;;;4953036;29;20058;-58
2022/11/06 11:39:29;;;;;;;90.95;35.05;;;;;;;;;;4952502;29;20475;-59
2022/11/06 11:42:15;;;;;;;87.25;34.47;;;;;;;;;;4953039;29;20038;-57
2022/11/06 11:44:41;;;;;;;85.63;35.17;;;;;;;;;;4952913;29;20487;-58
2022/11/06 11:47:20;;;;;;;87.28;34.08;;;;;;;;;;4953058;29;20110;-59
2022/11/06 11:49:46;;;;;;;79.47;33.42;;;;;;;;;;4953409;29;20141;-58
2022/11/06 11:52:15;;;;;;;87.00;35.92;;;;;;;;;;4953119;29;20027;-62
2022/11/06 11:54:47;;;;;;;89.55;35.78;;;;;;;;;;4952581;29;20106;-60
2022/11/06 11:57:20;;;;;;;90.22;37.55;;;;;;;;;;4953069;29;20360;-63
2022/11/06 11:59:54;;;;;;;83.47;34.88;;;;;;;;;;4952883;29;20030;-60
2022/11/06 12:02:20;;;;;;;83.22;33.78;;;;;;;;;;4952726;29;20027;-65
2022/11/06 12:04:50;;;;;;;80.70;34.63;;;;;;;;;;4952371;29;20055;-60
2022/11/06 12:07:36;;;;;;;89.20;36.92;;;;;;;;;;4952775;29;20023;-66
2022/11/06 12:10:12;;;;;;;86.68;36.53;;;;;;;;;;4952718;29;20446;-60
2022/11/06 12:12:38;;;;;;;86.78;36.17;;;;;;;;;;4952618;29;20069;-60
2022/11/06 12:15:17;;;;;;;85.53;36.85;;;;;;;;;;4952515;29;20486;-63
2022/11/06 12:17:43;;;;;;;82.05;34.00;;;;;;;;;;4952663;29;20034;-64
2022/11/06 12:20:16;;;;;;;73.60;32.50;;;;;;;;;;4952728;29;20059;-61
2022/11/06 12:22:44;;;;;;;71.47;33.33;;;;;;;;;;4952080;29;20049;-60
2022/11/06 12:25:10;;;;;;;73.50;33.35;;;;;;;;;;4952311;29;20027;-60
2022/11/06 12:27:45;;;;;;;76.72;32.70;;;;;;;;;;4952439;29;20098;-66
2022/11/06 12:30:12;;;;;;;79.53;34.80;;;;;;;;;;4952204;29;20035;-60
2022/11/06 12:32:38;;;;;;;83.50;34.65;;;;;;;;;;4951850;29;20023;-58
2022/11/06 12:35:23;;;;;;;92.50;36.95;;;;;;;;;;4952061;29;20030;-59
2022/11/06 12:38:10;;;;;;;83.47;36.70;;;;;;;;;;4952428;29;20027;-64
2022/11/06 12:40:37;;;;;;;90.95;37.42;;;;;;;;;;4954296;28;20023;-59
2022/11/06 12:43:05;;;;;;;90.68;37.92;;;;;;;;;;4955877;29;20047;-61
2022/11/06 12:45:50;;;;;;;80.57;34.75;;;;;;;;;;4956200;29;20821;-61
2022/11/06 12:48:35;;;;;;;86.72;36.75;;;;;;;;;;4956112;29;20027;-58
2022/11/06 12:51:19;;;;;;;85.85;36.42;;;;;;;;;;4956092;29;20039;-61
2022/11/06 12:54:04;;;;;;;84.85;35.58;;;;;;;;;;4955954;29;20043;-64
2022/11/06 12:56:38;;;;;;;82.97;34.88;;;;;;;;;;4955958;29;20019;-61
2022/11/06 12:59:13;;;;;;;86.45;35.78;;;;;;;;;;4933307;29;20024;-62
2022/11/06 13:02:00;;;;;;;80.35;35.88;;;;;;;;;;4925005;29;20016;-61
2022/11/06 13:04:42;;;;;;;80.20;34.53;;;;;;;;;;4926753;29;20142;-60
2022/11/06 13:07:20;;;;;;;82.22;33.35;;;;;;;;;;4928211;29;20034;-64
2022/11/06 13:09:54;;;;;;;71.30;32.88;;;;;;;;;;4928200;29;20049;-60
2022/11/06 13:12:40;;;;;;;70.22;32.58;;;;;;;;;;4936307;29;20042;-57
2022/11/06 13:15:06;;;;;;;72.50;31.92;;;;;;;;;;4936045;29;20028;-58
2022/11/06 13:17:40;;;;;;;66.40;31.30;;;;;;;;;;4936412;29;20043;-59
2022/11/06 13:20:16;;;;;;;66.50;29.95;;;;;;;;;;4935849;29;20615;-63
2022/11/06 13:22:45;;;;;;;67.47;30.67;;;;;;;;;;4934973;29;20035;-65
2022/11/06 13:25:14;;;;;;;75.50;32.47;;;;;;;;;;4935403;29;20507;-63
2022/11/06 13:27:52;;;;;;;72.07;32.75;;;;;;;;;;4936202;29;20102;-62
2022/11/06 13:30:19;;;;;;;73.40;32.13;;;;;;;;;;4934977;29;20035;-61
2022/11/06 13:33:05;;;;;;;66.63;30.90;;;;;;;;;;4936132;29;20487;-63
2022/11/06 13:35:32;;;;;;;61.85;30.10;;;;;;;;;;4935815;29;20031;-63
2022/11/06 13:37:59;;;;;;;57.72;27.85;;;;;;;;;;4936037;29;20039;-61
2022/11/06 13:40:35;;;;;;;56.28;27.15;;;;;;;;;;4935895;29;20387;-62
2022/11/06 13:43:27;;;;;;;63.03;28.48;;;;;;;;;;4935543;29;20546;-61
2022/11/06 13:45:56;;;;;;;65.90;30.70;;;;;;;;;;4906793;29;20039;-62
2022/11/06 13:48:38;;;;;;;71.75;31.50;;;;;;;;;;4935888;29;20036;-60
2022/11/06 13:51:10;;;;;;;76.97;36.17;;;;;;;;;;4935265;29;20082;-62
2022/11/06 13:53:37;;;;;;;;;;;;;;;;;;4935923;29;20115;-62
2022/11/06 13:56:03;;;;;;;69.15;33.53;;;;;;;;;;4935777;29;19906;-60
2022/11/06 13:58:47;;;;;;;64.93;31.70;;;;;;;;;;4935279;29;20357;-58
2022/11/06 14:01:16;;;;;;;65.65;31.90;;;;;;;;;;4936020;29;20032;-60
2022/11/06 14:03:42;;;;;;;64.70;30.27;;;;;;;;;;4935461;29;20060;-59
2022/11/06 14:06:14;;;;;;;61.60;31.35;;;;;;;;;;4936204;29;20028;-61
2022/11/06 14:08:40;;;;;;;;;;;;;;;;;;4935956;29;20416;-60
2022/11/06 14:11:10;;;;;;;55.97;27.38;;;;;;;;;;4935027;29;19918;-60
2022/11/06 14:13:37;;;;;;;60.13;27.70;;;;;;;;;;4935489;29;20042;-58
2022/11/06 14:16:24;;;;;;;61.35;27.67;;;;;;;;;;4935480;29;20027;-64
2022/11/06 14:18:57;;;;;;;62.20;28.50;;;;;;;;;;4935086;29;20064;-62
2022/11/06 14:21:26;;;;;;;68.60;28.63;;;;;;;;;;4934615;29;20032;-58
2022/11/06 14:23:53;;;;;;;62.28;27.67;;;;;;;;;;4934648;29;20469;-62
2022/11/06 14:26:36;;;;;;;61.28;28.02;;;;;;;;;;4934354;29;20071;-58
2022/11/06 14:29:22;;;;;;;60.03;26.42;;;;;;;;;;4935097;29;20028;-62
2022/11/06 14:32:20;;;;;;;68.13;29.23;;;;;;;;;;4934862;29;20039;-59
2022/11/06 14:34:46;;;;;;;67.68;28.45;;;;;;;;;;4857043;29;20097;-58
2022/11/06 14:37:18;;;;;;;58.15;27.05;;;;;;;;;;4857141;29;20055;-67
2022/11/06 14:39:50;;;;;;;67.20;28.33;;;;;;;;;;4857302;29;20044;-62
2022/11/06 14:42:16;;;;;;;;;;;;;;;;;;4857476;29;20132;-61
2022/11/06 14:44:44;;;;;;;64.57;26.92;;;;;;;;;;4857034;29;20006;-64
2022/11/06 14:47:20;;;;;;;56.97;26.08;;;;;;;;;;4854495;29;20126;-64
2022/11/06 14:49:49;;;;;;;62.72;26.85;;;;;;;;;;4848420;29;20038;-64
2022/11/06 14:52:15;;;;;;;60.83;27.42;;;;;;;;;;4846568;29;20504;-62
2022/11/06 14:54:49;;;;;;;52.47;25.05;;;;;;;;;;4846299;29;20079;-59
2022/11/06 14:57:16;;;;;;;55.15;25.50;;;;;;;;;;4846518;29;20538;-64
2022/11/06 14:59:43;;;;;;;52.88;24.83;;;;;;;;;;4846904;29;20117;-62
2022/11/06 15:02:15;;;;;;;55.63;25.27;;;;;;;;;;4844847;29;20042;-65
2022/11/06 15:04:53;;;;;;;57.15;26.45;;;;;;;;;;4845661;29;20058;-59
2022/11/06 15:07:27;;;;;;;53.00;25.13;;;;;;;;;;4847063;29;20426;-59
2022/11/06 15:09:54;;;;;;;55.65;25.75;;;;;;;;;;4871984;29;20115;-64
2022/11/06 15:12:39;;;;;;;58.92;27.50;;;;;;;;;;4923270;29;20030;-63
2022/11/06 15:15:15;;;;;;;57.28;27.23;;;;;;;;;;4924522;29;20046;-61
2022/11/06 15:17:41;;;;;;;61.00;25.83;;;;;;;;;;4925462;29;20032;-64
2022/11/06 15:20:14;;;;;;;53.55;23.80;;;;;;;;;;4922369;29;20035;-62
2022/11/06 15:22:48;;;;;;;55.67;23.98;;;;;;;;;;4922456;29;20074;-63
2022/11/06 15:25:26;;;;;;;57.22;24.42;;;;;;;;;;4906977;29;20403;-64
2022/11/06 15:28:12;;;;;;;48.03;21.75;;;;;;;;;;4934175;29;20028;-63
2022/11/06 15:30:45;;;;;;;53.90;23.38;;;;;;;;;;4934367;29;20547;-62
2022/11/06 15:33:13;;;;;;;47.92;21.30;;;;;;;;;;4933703;29;20040;-64
2022/11/06 15:35:40;;;;;;;43.55;20.50;;;;;;;;;;4933791;29;20059;-60
2022/11/06 15:38:19;;;;;;;44.33;20.85;;;;;;;;;;4934440;29;20035;-64
2022/11/06 15:40:46;;;;;;;45.10;20.52;;;;;;;;;;4934017;29;20032;-60
2022/11/06 15:43:21;;;;;;;43.42;18.70;;;;;;;;;;4933811;29;20095;-63
2022/11/06 15:46:01;;;;;;;41.13;18.23;;;;;;;;;;4931105;29;20175;-64
2022/11/06 15:48:27;;;;;;;38.15;18.10;;;;;;;;;;4923680;29;20036;-58
2022/11/06 15:50:53;;;;;;;40.72;17.50;;;;;;;;;;4914935;29;20040;-62
2022/11/06 15:53:21;;;;;;;34.63;18.05;;;;;;;;;;4914913;29;20067;-65
2022/11/06 15:55:56;;;;;;;43.45;19.25;;;;;;;;;;4914580;29;20131;-64
2022/11/06 15:58:25;;;;;;;38.08;18.85;;;;;;;;;;4914609;29;20028;-66
2022/11/06 16:00:51;;;;;;;36.65;17.70;;;;;;;;;;4915191;29;20029;-61
2022/11/06 16:03:18;;;;;;;37.35;16.88;;;;;;;;;;4914730;29;20043;-63
2022/11/06 16:05:45;;;;;;;34.47;16.48;;;;;;;;;;4914708;29;20043;-61
2022/11/06 16:08:15;;;;;;;36.92;17.13;;;;;;;;;;4918164;29;20032;-62
2022/11/06 16:10:42;;;;;;;34.13;15.85;;;;;;;;;;4933187;29;20484;-58
2022/11/06 16:13:11;;;;;;;35.40;16.42;;;;;;;;;;4927479;29;20059;-66
2022/11/06 16:15:44;;;;;;;34.80;16.17;;;;;;;;;;4919255;29;20526;-64
2022/11/06 16:18:10;;;;;;;;;;;;;;;;;;4918886;29;20067;-65
2022/11/06 16:20:36;;;;;;;27.67;14.65;;;;;;;;;;4918591;29;20327;-67
2022/11/06 16:23:03;;;;;;;30.23;14.25;;;;;;;;;;4918341;29;20111;-65
2022/11/06 16:25:29;;;;;;;29.58;14.32;;;;;;;;;;4930155;29;20090;-61
2022/11/06 16:27:55;;;;;;;29.30;14.38;;;;;;;;;;4936997;29;20044;-61
2022/11/06 16:30:22;;;;;;;31.85;13.98;;;;;;;;;;4937368;29;20027;-68
2022/11/06 16:32:49;;;;;;;29.42;14.70;;;;;;;;;;4936815;29;20036;-62
2022/11/06 16:35:31;;;;;;;29.88;14.38;;;;;;;;;;4938837;29;20036;-63
2022/11/06 16:38:18;;;;;;;35.45;14.70;;;;;;;;;;4926385;29;20070;-61
2022/11/06 16:40:44;;;;;;;24.88;13.82;;;;;;;;;;4906904;29;20047;-65
2022/11/06 16:43:14;;;;;;;28.50;13.40;;;;;;;;;;4906521;29;20059;-64
2022/11/06 16:46:07;;;;;;;30.08;13.50;;;;;;;;;;4918179;29;20523;-61
2022/11/06 16:48:44;;;;;;;31.77;14.73;;;;;;;;;;4853182;29;20072;-67
2022/11/06 16:51:29;;;;;;;36.25;15.30;;;;;;;;;;4858550;29;20093;-63
2022/11/06 16:53:55;;;;;;;33.67;15.95;;;;;;;;;;4858670;29;20041;-58
2022/11/06 16:56:25;;;;;;;30.92;15.50;;;;;;;;;;4858273;29;20540;-61
2022/11/06 16:58:54;;;;;;;43.97;21.02;;;;;;;;;;4861468;29;20053;-61
2022/11/06 17:01:20;;;;;;;38.95;18.13;;;;;;;;;;4858233;29;20037;-63
2022/11/06 17:03:53;;;;;;;38.45;17.38;;;;;;;;;;4858525;29;20597;-67
2022/11/06 17:06:24;;;;;;;41.67;17.40;;;;;;;;;;4844279;29;20194;-62
2022/11/06 17:08:59;;;;;;;44.17;16.98;;;;;;;;;;4858889;29;20044;-64
2022/11/06 17:11:25;;;;;;;35.65;16.02;;;;;;;;;;4859129;29;20025;-61
2022/11/06 17:13:52;;;;;;;36.90;16.20;;;;;;;;;;4859231;29;20068;-62
2022/11/06 17:16:22;;;;;;;39.00;17.27;;;;;;;;;;4859359;29;20044;-58
2022/11/06 17:18:48;;;;;;;42.17;17.38;;;;;;;;;;4859334;29;20060;-62
2022/11/06 17:21:17;;;;;;;40.88;17.58;;;;;;;;;;4858545;29;20034;-64
2022/11/06 17:23:44;;;;;;;39.10;17.08;;;;;;;;;;4858798;29;20386;-68
2022/11/06 17:26:16;;;;;;;37.88;17.05;;;;;;;;;;4919551;29;20042;-60
2022/11/06 17:28:42;;;;;;;43.83;17.70;;;;;;;;;;4936327;29;20071;-65
2022/11/06 17:31:15;;;;;;;36.58;16.90;;;;;;;;;;4935987;29;20028;-61
2022/11/06 17:33:42;;;;;;;41.30;17.80;;;;;;;;;;4935618;29;20062;-56
2022/11/06 17:36:14;;;;;;;44.28;20.58;;;;;;;;;;4935810;29;20031;-59
2022/11/06 17:38:40;;;;;;;37.00;17.92;;;;;;;;;;4935734;29;20162;-67
2022/11/06 17:41:06;;;;;;;40.22;18.30;;;;;;;;;;4926619;29;20078;-63
2022/11/06 17:43:32;;;;;;;44.85;18.83;;;;;;;;;;4935879;29;20027;-63
2022/11/06 17:45:58;;;;;;;36.63;16.85;;;;;;;;;;4935773;29;20039;-64
2022/11/06 17:48:24;;;;;;;39.65;16.98;;;;;;;;;;4935979;29;20066;-64
2022/11/06 17:53:34;;;;;;;34.00;15.43;;;;;;;;;;4927283;29;20555;-64
2022/11/06 17:56:04;;;;;;;34.88;15.27;;;;;;;;;;4927033;29;20054;-61
2022/11/06 17:58:30;;;;;;;34.08;14.75;;;;;;;;;;4923923;29;20086;-59
2022/11/06 18:01:04;;;;;;;37.65;14.95;;;;;;;;;;4941501;29;20089;-59
2022/11/06 18:03:30;;;;;;;42.72;16.50;;;;;;;;;;4937440;29;20059;-65
2022/11/06 18:05:56;;;;;;;36.13;16.20;;;;;;;;;;4935234;29;20026;-64
2022/11/06 18:08:22;;;;;;;36.58;16.55;;;;;;;;;;4934590;29;20035;-66
2022/11/06 18:10:57;;;;;;;38.63;16.42;;;;;;;;;;4927009;29;20377;-64
2022/11/06 18:13:23;;;;;;;41.67;17.20;;;;;;;;;;4914738;29;20032;-68
2022/11/06 18:15:51;;;;;;;39.30;16.60;;;;;;;;;;4915292;29;20391;-62
2022/11/06 18:18:17;;;;;;;41.00;16.85;;;;;;;;;;4914784;29;20166;-66
2022/11/06 18:20:47;;;;;;;42.08;17.98;;;;;;;;;;4915209;29;20116;-67
2022/11/06 18:23:13;;;;;;;40.80;18.63;;;;;;;;;;4914803;29;20119;-67
2022/11/06 18:25:39;;;;;;;43.83;19.50;;;;;;;;;;4915009;29;20039;-67
2022/11/06 18:28:05;;;;;;;43.25;20.30;;;;;;;;;;4914933;29;20036;-67
2022/11/06 18:30:31;;;;;;;46.85;20.92;;;;;;;;;;4914694;29;20460;-65
2022/11/06 18:32:58;;;;;;;46.20;20.80;;;;;;;;;;4914676;29;20100;-67
2022/11/06 18:35:24;;;;;;;42.10;21.23;;;;;;;;;;4914296;29;20107;-64
2022/11/06 18:37:50;;;;;;;47.88;22.67;;;;;;;;;;4914053;29;20027;-64
2022/11/06 18:40:16;;;;;;;46.50;22.77;;;;;;;;;;4914585;29;20024;-63
2022/11/06 18:42:42;;;;;;;40.75;20.75;;;;;;;;;;4914649;29;20036;-63
2022/11/06 18:45:08;;;;;;;43.90;21.50;;;;;;;;;;4915207;29;20035;-64
2022/11/06 18:47:34;;;;;;;44.78;21.50;;;;;;;;;;4914244;29;20028;-60
2022/11/06 18:50:00;;;;;;;44.35;22.63;;;;;;;;;;4914821;29;20021;-63
2022/11/06 18:52:26;;;;;;;45.63;22.35;;;;;;;;;;4914841;29;20028;-59
2022/11/06 18:54:53;;;;;;;46.65;22.60;;;;;;;;;;4914867;29;20119;-62
2022/11/06 18:57:19;;;;;;;46.10;21.88;;;;;;;;;;4914559;29;20036;-61
2022/11/06 18:59:45;;;;;;;52.25;21.92;;;;;;;;;;4914426;29;20043;-64
2022/11/06 19:02:11;;;;;;;50.25;21.98;;;;;;;;;;4914131;29;20485;-64
2022/11/06 19:04:37;;;;;;;48.70;22.25;;;;;;;;;;4913327;29;20064;-62
2022/11/06 19:07:03;;;;;;;47.63;23.48;;;;;;;;;;4913993;29;20115;-66
2022/11/06 19:09:29;;;;;;;42.55;21.52;;;;;;;;;;4913319;29;20032;-65
2022/11/06 19:11:55;;;;;;;44.55;23.13;;;;;;;;;;4914336;29;20107;-60
2022/11/06 19:14:21;;;;;;;43.72;20.92;;;;;;;;;;4914164;29;20043;-63
2022/11/06 19:16:47;;;;;;;42.65;22.65;;;;;;;;;;4913616;29;20024;-66
2022/11/06 19:19:13;;;;;;;43.67;21.25;;;;;;;;;;4914046;29;20039;-65
2022/11/06 19:21:44;;;;;;;44.70;22.90;;;;;;;;;;4913734;29;20127;-65
2022/11/06 19:24:11;;;;;;;43.50;22.47;;;;;;;;;;4913480;29;20031;-63
2022/11/06 19:26:37;;;;;;;45.28;21.50;;;;;;;;;;4914264;29;20082;-61
2022/11/06 19:29:08;;;;;;;47.28;23.05;;;;;;;;;;4913995;29;20032;-66
2022/11/06 19:31:36;;;;;;;44.28;21.88;;;;;;;;;;4897067;29;20039;-58
2022/11/06 19:34:02;;;;;;;40.05;21.73;;;;;;;;;;4913864;29;20048;-59
2022/11/06 19:36:28;;;;;;;40.78;21.30;;;;;;;;;;4913853;29;20067;-67
2022/11/06 19:38:57;;;;;;;43.90;22.77;;;;;;;;;;4913317;29;20028;-66
2022/11/06 19:41:23;;;;;;;47.08;23.08;;;;;;;;;;4913497;29;20032;-66
2022/11/06 19:43:49;;;;;;;39.08;21.00;;;;;;;;;;4913968;29;20551;-65
2022/11/06 19:46:19;;;;;;;45.90;22.15;;;;;;;;;;4913825;29;20548;-64
2022/11/06 19:48:45;;;;;;;43.80;22.20;;;;;;;;;;4913687;29;20115;-66
2022/11/06 19:51:12;;;;;;;46.45;21.42;;;;;;;;;;4913820;29;20510;-66
2022/11/06 19:53:39;;;;;;;45.45;20.92;;;;;;;;;;4913567;29;20039;-65
2022/11/06 19:56:07;;;;;;;44.28;20.85;;;;;;;;;;4914041;29;20025;-61
2022/11/06 19:58:33;;;;;;;47.40;21.20;;;;;;;;;;4913640;29;20036;-62
2022/11/06 20:01:00;;;;;;;46.22;20.42;;;;;;;;;;4913760;29;20107;-61
2022/11/06 20:03:26;;;;;;;41.42;19.52;;;;;;;;;;4913264;29;20052;-58
2022/11/06 20:05:52;;;;;;;38.53;18.77;;;;;;;;;;4913245;29;20028;-62
2022/11/06 20:08:18;;;;;;;40.33;19.15;;;;;;;;;;4913094;29;20060;-59
2022/11/06 20:10:46;;;;;;;40.67;20.15;;;;;;;;;;4913588;29;20024;-58
2022/11/06 20:13:12;;;;;;;43.05;19.45;;;;;;;;;;4913677;29;20503;-61
2022/11/06 20:15:38;;;;;;;40.40;19.88;;;;;;;;;;4913387;29;20111;-60
2022/11/06 20:18:04;;;;;;;43.40;20.27;;;;;;;;;;4913359;29;20032;-60
2022/11/06 20:20:30;;;;;;;46.00;20.33;;;;;;;;;;4913654;29;20111;-62
2022/11/06 20:22:57;;;;;;;44.83;20.30;;;;;;;;;;4913564;29;20052;-59
2022/11/06 20:25:23;;;;;;;45.97;21.45;;;;;;;;;;4945404;29;20031;-58
2022/11/06 20:27:49;;;;;;;48.63;21.15;;;;;;;;;;4951319;29;20035;-65
2022/11/06 20:30:15;;;;;;;47.75;21.67;;;;;;;;;;4951818;29;20024;-60
2022/11/06 20:32:41;;;;;;;47.78;22.25;;;;;;;;;;4951419;29;20082;-64
2022/11/06 20:35:08;;;;;;;47.42;22.10;;;;;;;;;;4951232;29;20032;-60
2022/11/06 20:37:34;;;;;;;53.03;24.88;;;;;;;;;;4951306;29;20042;-64
2022/11/06 20:40:00;;;;;;;53.92;24.63;;;;;;;;;;4950705;29;20432;-64